Time;durP1;ratioP1;P1;durP2;ratioP2;P2;SDS_P1;SDS_P2;PMS_P1;PMS_P2;Temp;Humidity;BMP_temperature;BMP_pressure;BME280_temperature;BME280_humidity;BME280_pressure;Samples;Min_cycle;Max_cycle;Signal;HPM_P1;HPM_P2
2021/03/07 00:00:45;;;;;;;8.05;4.17;;;;;;;-1.94;64.17;100064.44;1809343;79;21106;-39
2021/03/07 00:03:13;;;;;;;8.58;4.80;;;;;;;-1.99;64.33;100059.10;1762177;80;22268;-40
2021/03/07 00:05:42;;;;;;;8.28;4.80;;;;;;;-1.97;64.23;100059.09;1785758;78;21177;-40
2021/03/07 00:08:10;;;;;;;8.05;4.62;;;;;;;-1.97;64.09;100054.31;1787206;79;21593;-40
2021/03/07 00:10:40;;;;;;;8.05;4.58;;;;;;;-1.95;64.06;100061.50;1751103;80;21026;-40
2021/03/07 00:13:09;;;;;;;;;;;;;;;-1.95;63.96;100051.68;1769483;80;21179;-39
2021/03/07 00:15:37;;;;;;;8.68;4.67;;;;;;;-2.06;64.05;100046.05;1777499;80;21206;-40
2021/03/07 00:18:06;;;;;;;8.08;4.75;;;;;;;-2.07;64.28;100046.30;1789884;79;21071;-40
2021/03/07 00:20:34;;;;;;;7.05;4.65;;;;;;;-2.02;64.22;100047.64;1776758;79;21041;-39
2021/03/07 00:23:03;;;;;;;7.55;4.55;;;;;;;-2.04;64.37;100037.30;1773308;80;21593;-40
2021/03/07 00:25:31;;;;;;;8.65;4.90;;;;;;;-2.01;64.33;100039.95;1786856;79;21186;-40
2021/03/07 00:28:00;;;;;;;7.50;4.60;;;;;;;-2.00;64.24;100026.94;1776918;79;21263;-40
2021/03/07 00:30:28;;;;;;;6.95;4.50;;;;;;;-1.97;64.11;100018.44;1773233;79;21837;-40
2021/03/07 00:32:56;;;;;;;7.30;4.40;;;;;;;-1.94;63.99;100020.59;1786185;79;21699;-40
2021/03/07 00:35:25;;;;;;;5.47;3.92;;;;;;;-1.97;64.06;100014.45;1780696;80;21450;-40
2021/03/07 00:37:54;;;;;;;8.63;4.40;;;;;;;-1.97;64.03;100018.44;1780453;79;21191;-40
2021/03/07 00:40:22;;;;;;;7.15;4.58;;;;;;;-1.94;63.85;100012.09;1773162;79;21202;-40
2021/03/07 00:42:50;;;;;;;6.53;4.08;;;;;;;-1.98;63.73;100007.54;1772928;80;21153;-40
2021/03/07 00:45:19;;;;;;;7.67;4.45;;;;;;;-1.97;63.67;100009.14;1797147;79;20976;-40
2021/03/07 00:47:47;;;;;;;6.17;4.20;;;;;;;-2.01;64.00;100002.23;1786444;80;21159;-40
2021/03/07 00:50:20;;;;;;;5.77;3.80;;;;;;;-1.99;64.08;99992.69;1752111;80;21189;-39
2021/03/07 00:52:48;;;;;;;8.28;4.30;;;;;;;-2.01;64.33;99992.94;1757101;81;23446;-40
2021/03/07 00:55:17;;;;;;;5.65;4.08;;;;;;;-2.02;64.61;99985.21;1758684;80;21167;-40
2021/03/07 00:57:45;;;;;;;4.95;3.33;;;;;;;-1.98;64.66;99979.11;1791347;80;20972;-40
2021/03/07 01:00:20;;;;;;;6.85;4.40;;;;;;;-2.00;64.81;99985.77;1790737;80;21166;-39
2021/03/07 01:02:48;;;;;;;8.43;4.37;;;;;;;-2.04;65.41;99970.08;1789097;80;21588;-40
2021/03/07 01:05:17;;;;;;;7.25;4.05;;;;;;;-2.04;65.41;99970.08;1788572;80;21573;-40
2021/03/07 01:07:47;;;;;;;7.87;4.37;;;;;;;-2.02;65.21;99963.96;1789015;78;21067;-40
2021/03/07 01:10:26;;;;;;;6.25;3.92;;;;;;;-2.01;65.33;99960.25;1790436;78;21404;-39
2021/03/07 01:12:54;;;;;;;6.28;4.47;;;;;;;-2.02;65.29;99951.48;1788698;80;21190;-40
2021/03/07 01:15:25;;;;;;;7.80;4.47;;;;;;;-2.04;65.37;99944.84;1787748;80;21122;-40
2021/03/07 01:17:56;;;;;;;6.72;3.70;;;;;;;-2.09;65.28;99936.86;1817767;78;21583;-40
2021/03/07 01:20:24;;;;;;;6.67;3.83;;;;;;;-2.09;65.24;99931.02;1788262;80;21162;-40
2021/03/07 01:22:55;;;;;;;6.60;4.28;;;;;;;-2.11;65.23;99931.00;1772809;80;21166;-40
2021/03/07 01:25:26;;;;;;;6.37;4.05;;;;;;;-2.11;65.20;99932.33;1787340;78;21171;-40
2021/03/07 01:27:54;;;;;;;6.90;3.90;;;;;;;-2.10;65.51;99929.95;1763510;80;21425;-40
2021/03/07 01:30:23;;;;;;;8.08;4.40;;;;;;;-2.10;65.51;99929.95;1809942;78;21366;-40
2021/03/07 01:32:52;;;;;;;;;;;;;;;-2.12;65.38;99920.90;1777694;80;20990;-40
2021/03/07 01:35:23;;;;;;;5.65;3.47;;;;;;;-2.14;65.40;99913.74;1756248;81;20224;-40
2021/03/07 01:37:53;;;;;;;5.58;4.05;;;;;;;-2.17;65.32;99908.14;1777525;78;21150;-39
2021/03/07 01:40:27;;;;;;;7.10;3.98;;;;;;;-2.17;65.32;99908.14;1777193;80;21122;-39
2021/03/07 01:42:57;;;;;;;6.35;3.95;;;;;;;-2.15;65.32;99904.70;1759293;80;21283;-40
2021/03/07 01:45:29;;;;;;;7.60;4.30;;;;;;;-2.16;65.14;99906.55;1807249;78;21166;-40
2021/03/07 01:48:04;;;;;;;5.30;4.10;;;;;;;-2.12;65.25;99895.67;1788929;80;21168;-40
2021/03/07 01:50:36;;;;;;;8.23;4.15;;;;;;;-2.11;65.31;99889.30;1764051;80;21177;-40
2021/03/07 01:53:04;;;;;;;6.67;4.03;;;;;;;-2.12;65.45;99880.26;1807071;78;21564;-40
2021/03/07 01:55:36;;;;;;;7.08;4.05;;;;;;;-2.11;65.59;99872.56;1765682;80;21641;-40
2021/03/07 01:58:20;;;;;;;8.68;4.50;;;;;;;-2.12;65.34;99881.59;1780145;78;21573;-40
2021/03/07 02:00:48;;;;;;;6.45;4.22;;;;;;;-2.14;65.42;99879.22;1788518;80;21549;-39
2021/03/07 02:03:17;;;;;;;5.97;4.03;;;;;;;-2.10;65.32;99880.28;1784310;80;21154;-39
2021/03/07 02:05:46;;;;;;;8.25;4.28;;;;;;;-2.07;65.16;99882.39;1799803;79;21379;-40
2021/03/07 02:08:16;;;;;;;5.53;3.10;;;;;;;-2.02;65.00;99871.78;1779580;80;21195;-40
2021/03/07 02:10:51;;;;;;;;;;;;;;;-2.04;64.79;99862.49;1789317;78;21133;-40
2021/03/07 02:13:31;;;;;;;6.22;3.62;;;;;;;-2.08;65.07;99861.43;1785427;78;20219;-40
2021/03/07 02:16:06;;;;;;;8.30;4.10;;;;;;;-2.08;65.07;99861.43;1804607;78;21592;-39
2021/03/07 02:18:36;;;;;;;6.75;4.00;;;;;;;-2.10;65.12;99840.96;1781116;80;21107;-40
2021/03/07 02:21:10;;;;;;;7.58;4.42;;;;;;;-2.12;65.20;99846.53;1787841;80;21367;-40
2021/03/07 02:24:10;;;;;;;8.00;4.08;;;;;;;-2.12;64.99;99853.17;1788902;80;21188;-39
2021/03/07 02:26:39;;;;;;;;;;;;;;;-2.10;65.02;99844.95;1797022;78;21034;-39
2021/03/07 02:29:08;;;;;;;6.67;4.43;;;;;;;-2.14;64.94;99835.91;1789225;80;20215;-39
2021/03/07 02:31:47;;;;;;;9.13;3.60;;;;;;;-2.20;65.13;99829.27;1779857;79;21143;-40
2021/03/07 02:34:39;;;;;;;7.53;4.78;;;;;;;-2.16;65.12;99827.40;1787061;79;21298;-39
2021/03/07 02:37:09;;;;;;;6.55;4.08;;;;;;;-2.12;64.89;99819.97;1785044;80;21016;-39
2021/03/07 02:39:40;;;;;;;9.80;4.78;;;;;;;-2.10;64.78;99809.89;1814241;78;21586;-40
2021/03/07 02:42:14;;;;;;;8.90;5.03;;;;;;;-2.11;64.52;99802.17;1807896;78;21162;-40
2021/03/07 02:45:00;;;;;;;6.85;4.20;;;;;;;-2.11;64.52;99802.17;1814997;78;21644;-40
2021/03/07 02:47:30;;;;;;;7.62;4.60;;;;;;;-2.07;64.38;99815.98;1788932;80;21269;-40
2021/03/07 02:50:05;;;;;;;7.28;4.83;;;;;;;-2.08;64.46;99808.30;1806099;78;21130;-39
2021/03/07 02:52:34;;;;;;;7.40;4.42;;;;;;;-2.11;64.37;99803.50;1755036;81;21217;-40
2021/03/07 02:55:03;;;;;;;9.53;5.15;;;;;;;-2.11;64.37;99803.50;1776492;78;21146;-40
2021/03/07 02:57:31;;;;;;;4.75;3.60;;;;;;;-2.08;64.14;99796.34;1780325;79;21181;-40
2021/03/07 03:00:00;;;;;;;9.18;4.37;;;;;;;-2.08;64.17;99797.68;1769388;81;21298;-39
2021/03/07 03:02:29;;;;;;;7.85;4.83;;;;;;;-2.09;64.20;99792.09;1799137;79;21195;-39
2021/03/07 03:04:58;;;;;;;6.75;4.22;;;;;;;-2.09;64.22;99783.59;1793176;79;21169;-40
2021/03/07 03:07:27;;;;;;;12.18;4.92;;;;;;;-2.09;64.21;99785.45;1775440;79;21122;-40
2021/03/07 03:09:55;;;;;;;8.65;5.20;;;;;;;-2.11;64.13;99776.94;1791517;79;21197;-40
2021/03/07 03:12:24;;;;;;;8.53;4.58;;;;;;;-2.11;64.13;99776.94;1801693;79;21209;-40
2021/03/07 03:14:52;;;;;;;10.15;5.10;;;;;;;-2.07;64.44;99780.66;1753673;80;21036;-40
2021/03/07 03:17:21;;;;;;;11.10;5.22;;;;;;;-2.06;64.29;99770.30;1795045;79;21126;-39
2021/03/07 03:19:49;;;;;;;8.68;4.95;;;;;;;-2.09;64.51;99766.33;1777417;80;21124;-40
2021/03/07 03:22:18;;;;;;;8.20;4.80;;;;;;;-2.06;64.34;99747.19;1734046;80;21093;-40
2021/03/07 03:24:47;;;;;;;8.55;4.03;;;;;;;-2.02;64.20;99743.47;1774314;80;21266;-40
2021/03/07 03:27:15;;;;;;;10.08;5.25;;;;;;;-2.04;64.37;99736.31;1756082;80;21178;-39
2021/03/07 03:30:52;;;;;;;10.23;5.50;;;;;;;-1.99;64.25;99730.46;1840981;78;22540;-39
2021/03/07 03:33:26;;;;;;;14.30;5.70;;;;;;;-2.06;64.39;99722.48;1805080;77;22394;-38
2021/03/07 03:35:54;;;;;;;8.43;5.50;;;;;;;-2.06;64.40;99723.81;1795232;79;21164;-39
2021/03/07 03:38:46;;;;;;;10.57;5.80;;;;;;;-2.00;64.40;99722.75;1780481;80;22108;-39
2021/03/07 03:41:16;;;;;;;9.95;5.37;;;;;;;-1.98;64.41;99716.63;1784136;79;21058;-39
2021/03/07 03:43:45;;;;;;;11.88;5.78;;;;;;;-2.02;64.50;99705.73;1791381;79;21008;-39
2021/03/07 03:46:14;;;;;;;10.43;6.03;;;;;;;-2.02;64.59;99694.31;1718313;79;21023;-39
2021/03/07 03:48:43;;;;;;;13.25;6.72;;;;;;;-2.02;64.59;99694.31;1782377;79;21236;-39
2021/03/07 03:51:12;;;;;;;11.05;5.60;;;;;;;-1.98;64.43;99694.04;1722355;82;21202;-39
2021/03/07 03:53:40;;;;;;;10.93;6.03;;;;;;;-1.97;64.67;99689.80;1754898;79;21002;-39
2021/03/07 03:56:08;;;;;;;10.28;5.97;;;;;;;-1.97;64.67;99689.80;1732964;81;21641;-38
2021/03/07 03:58:43;;;;;;;9.68;5.80;;;;;;;-1.97;64.74;99685.01;1756766;80;21151;-38
2021/03/07 04:01:10;;;;;;;11.97;6.55;;;;;;;-1.96;64.79;99677.31;1755299;79;22145;-39
2021/03/07 04:03:38;;;;;;;10.10;6.08;;;;;;;-1.92;64.86;99674.38;1769128;80;21047;-38
2021/03/07 04:06:07;;;;;;;12.07;6.40;;;;;;;-1.91;64.89;99668.00;1750025;80;21547;-38
2021/03/07 04:08:36;;;;;;;11.15;5.92;;;;;;;-1.91;64.89;99668.00;1758110;80;21172;-38
2021/03/07 04:11:04;;;;;;;13.18;6.85;;;;;;;-1.90;64.74;99657.64;1747026;80;21161;-39
2021/03/07 04:13:32;;;;;;;10.63;6.00;;;;;;;-1.90;64.97;99655.78;1769662;79;21198;-38
2021/03/07 04:16:01;;;;;;;9.88;6.65;;;;;;;-1.88;64.84;99648.31;1776272;80;21151;-38
2021/03/07 04:18:29;;;;;;;12.68;6.28;;;;;;;-1.84;64.85;99646.70;1747653;82;21016;-38
2021/03/07 04:20:59;;;;;;;11.68;6.55;;;;;;;-1.85;64.94;99637.70;1748755;82;21240;-39
2021/03/07 04:23:27;;;;;;;11.20;6.50;;;;;;;-1.83;65.01;99630.23;1696941;80;21174;-39
2021/03/07 04:25:56;;;;;;;10.40;6.37;;;;;;;-1.85;65.09;99624.41;1777554;80;21942;-39
2021/03/07 04:28:24;;;;;;;11.30;6.65;;;;;;;-1.84;65.10;99620.13;1747489;82;21486;-38
2021/03/07 04:30:52;;;;;;;12.37;7.80;;;;;;;-1.81;65.16;99614.83;1747704;80;21177;-39
2021/03/07 04:33:21;;;;;;;12.88;7.55;;;;;;;-1.83;65.33;99609.77;1793326;79;21000;-39
2021/03/07 04:35:50;;;;;;;13.03;7.90;;;;;;;-1.80;65.25;99609.25;1786575;79;21150;-39
2021/03/07 04:38:19;;;;;;;12.58;7.08;;;;;;;-1.79;65.39;99615.33;1782300;79;23440;-39
2021/03/07 04:40:47;;;;;;;14.30;7.37;;;;;;;-1.76;65.37;99610.82;1786708;77;21153;-38
2021/03/07 04:43:19;;;;;;;12.58;7.12;;;;;;;-1.74;65.36;99614.55;1799281;79;21697;-39
2021/03/07 04:45:47;;;;;;;11.80;7.22;;;;;;;-1.79;65.66;99606.03;1782021;79;21155;-39
2021/03/07 04:48:15;;;;;;;14.45;7.60;;;;;;;-1.78;65.61;99609.76;1782764;79;21573;-39
2021/03/07 04:50:44;;;;;;;12.05;7.53;;;;;;;-1.79;65.64;99592.74;1804137;79;21376;-39
2021/03/07 04:53:12;;;;;;;14.15;8.60;;;;;;;-1.79;65.66;99592.74;1792274;79;21186;-38
2021/03/07 04:55:40;;;;;;;11.95;7.80;;;;;;;-1.78;65.64;99595.14;1800640;79;21580;-38
2021/03/07 04:58:08;;;;;;;13.72;8.43;;;;;;;-1.79;65.75;99594.88;1787235;79;21145;-38
2021/03/07 05:00:37;;;;;;;13.72;7.97;;;;;;;-1.79;65.81;99592.74;1781575;80;21110;-39
2021/03/07 05:03:05;;;;;;;15.40;8.88;;;;;;;-1.74;65.74;99592.72;1779413;79;22055;-39
2021/03/07 05:05:34;;;;;;;13.88;8.35;;;;;;;-1.74;65.58;99586.64;1785253;79;21444;-38
2021/03/07 05:08:06;;;;;;;18.82;8.68;;;;;;;-1.77;65.82;99584.78;1781385;80;21039;-38
2021/03/07 05:10:33;;;;;;;12.55;8.63;;;;;;;-1.76;65.86;99572.28;1781548;79;21138;-39
2021/03/07 05:13:02;;;;;;;13.47;8.40;;;;;;;-1.71;65.70;99574.13;1781712;80;21436;-39
2021/03/07 05:15:30;;;;;;;13.88;8.95;;;;;;;-1.74;65.54;99577.34;1782145;79;23508;-38
2021/03/07 05:17:58;;;;;;;14.18;8.90;;;;;;;-1.70;65.75;99572.53;1781931;79;21035;-38
2021/03/07 05:20:27;;;;;;;14.87;9.20;;;;;;;-1.69;65.76;99558.15;1799266;79;21115;-39
2021/03/07 05:22:55;;;;;;;14.98;8.75;;;;;;;-1.67;65.79;99561.88;1812446;79;21157;-39
2021/03/07 05:25:24;;;;;;;14.30;8.53;;;;;;;-1.65;65.73;99568.52;1808436;78;21126;-39
2021/03/07 05:27:53;;;;;;;14.68;8.63;;;;;;;-1.66;65.71;99551.51;1795832;77;21629;-39
2021/03/07 05:30:23;;;;;;;15.40;8.83;;;;;;;-1.57;65.39;99556.50;1797627;77;21157;-38
2021/03/07 05:32:52;;;;;;;;;;;;;;;-1.56;65.53;99554.91;1814750;78;21000;-39
2021/03/07 05:35:21;;;;;;;15.58;9.43;;;;;;;-1.52;65.54;99550.63;1797443;77;20497;-38
2021/03/07 05:37:49;;;;;;;17.57;9.75;;;;;;;-1.53;65.40;99554.34;1753398;80;21175;-38
2021/03/07 05:40:18;;;;;;;14.25;8.88;;;;;;;-1.49;65.10;99558.04;1756527;80;21327;-38
2021/03/07 05:42:46;;;;;;;18.20;9.43;;;;;;;-1.46;65.05;99546.88;1768015;80;21566;-38
2021/03/07 05:45:17;;;;;;;;;;;;;;;-1.44;65.05;99537.27;1750704;82;21189;-38
2021/03/07 05:47:44;;;;;;;15.20;8.78;;;;;;;-1.39;64.94;99538.56;1722934;81;20290;-39
2021/03/07 05:50:13;;;;;;;15.30;9.45;;;;;;;-1.44;65.24;99539.93;1799285;79;21545;-38
2021/03/07 05:52:41;;;;;;;17.10;9.53;;;;;;;-1.41;65.29;99540.20;1788570;79;21354;-38
2021/03/07 05:55:11;;;;;;;15.00;9.85;;;;;;;-1.41;65.02;99528.23;1784391;79;21154;-38
2021/03/07 05:57:39;;;;;;;15.60;8.88;;;;;;;-1.30;65.01;99522.28;1804075;79;20976;-38
2021/03/07 06:00:10;;;;;;;17.98;9.48;;;;;;;-1.27;64.72;99536.91;1791746;79;21154;-39
2021/03/07 06:02:39;;;;;;;14.33;9.05;;;;;;;-1.23;64.75;99521.97;1789790;79;21596;-39
2021/03/07 06:05:11;;;;;;;14.83;8.88;;;;;;;-1.15;64.58;99526.16;1791637;79;21569;-39
2021/03/07 06:07:40;;;;;;;12.93;7.67;;;;;;;-1.12;64.20;99518.17;1788860;79;21149;-39
2021/03/07 06:10:15;;;;;;;14.23;8.58;;;;;;;-1.02;64.12;99512.77;1802195;79;21596;-39
2021/03/07 06:12:56;;;;;;;15.35;9.03;;;;;;;-0.96;64.05;99513.75;1811012;77;21075;-38
2021/03/07 06:15:27;;;;;;;15.10;9.45;;;;;;;-0.89;63.62;99522.75;1802770;79;21142;-38
2021/03/07 06:17:55;;;;;;;13.50;7.13;;;;;;;-0.84;63.52;99513.39;1802206;77;21207;-39
2021/03/07 06:20:26;;;;;;;13.78;9.23;;;;;;;-0.80;62.95;99524.27;1802849;77;22171;-39
2021/03/07 06:22:59;;;;;;;16.02;9.48;;;;;;;-0.74;62.94;99519.95;1741575;80;21573;-39
2021/03/07 06:25:27;;;;;;;14.25;9.00;;;;;;;-0.65;63.08;99500.96;1744551;80;21143;-39
2021/03/07 06:27:56;;;;;;;14.90;9.75;;;;;;;-0.57;62.13;99503.00;1750127;81;21182;-39
2021/03/07 06:30:26;;;;;;;14.93;8.55;;;;;;;-0.51;61.91;99505.07;1768243;79;21254;-39
2021/03/07 06:32:58;;;;;;;16.12;9.45;;;;;;;-0.46;61.73;99506.34;1763954;79;21200;-39
2021/03/07 06:35:30;;;;;;;14.30;9.10;;;;;;;-0.35;61.76;99507.03;1762153;80;21691;-39
2021/03/07 06:38:09;;;;;;;16.67;9.45;;;;;;;-0.71;61.52;99454.16;1757147;81;21568;-39
2021/03/07 06:40:43;;;;;;;16.07;9.43;;;;;;;-0.25;61.38;99505.59;1732515;81;21154;-39
2021/03/07 06:43:26;;;;;;;17.07;9.90;;;;;;;-0.24;61.01;99500.52;1724454;82;21373;-39
2021/03/07 06:45:56;;;;;;;15.83;9.55;;;;;;;-0.19;60.96;99497.23;1733213;81;21179;-39
2021/03/07 06:48:35;;;;;;;14.98;9.38;;;;;;;-0.15;61.29;99492.94;1741139;82;21182;-39
2021/03/07 06:51:05;;;;;;;14.05;8.50;;;;;;;-0.10;61.34;99486.76;1735083;82;21008;-39
2021/03/07 06:53:35;;;;;;;17.60;9.18;;;;;;;-0.02;60.41;99480.78;1733898;82;21013;-39
2021/03/07 06:56:05;;;;;;;15.68;8.60;;;;;;;0.02;60.23;99482.33;1791866;78;21585;-39
2021/03/07 06:58:33;;;;;;;17.57;9.65;;;;;;;0.06;59.99;99481.46;1797601;79;21001;-39
2021/03/07 07:01:01;;;;;;;17.90;10.18;;;;;;;0.11;59.79;99468.06;1800770;79;21602;-39
2021/03/07 07:03:31;;;;;;;20.85;10.28;;;;;;;0.18;59.61;99467.18;1728766;82;21545;-39
2021/03/07 07:06:00;;;;;;;15.98;9.60;;;;;;;0.26;59.52;99461.19;1740689;81;21623;-39
2021/03/07 07:08:45;;;;;;;17.00;9.63;;;;;;;0.35;59.30;99460.78;1731409;81;21205;-39
2021/03/07 07:11:14;;;;;;;14.15;9.23;;;;;;;0.37;59.55;99455.17;1789133;79;21663;-39
2021/03/07 07:13:45;;;;;;;16.90;9.73;;;;;;;0.38;58.92;99454.89;1787493;79;21198;-39
2021/03/07 07:16:15;;;;;;;17.32;9.70;;;;;;;0.44;59.47;99451.58;1720271;81;21168;-39
2021/03/07 07:18:45;;;;;;;17.40;10.03;;;;;;;0.43;59.00;99448.69;1757955;79;22314;-38
2021/03/07 07:21:15;;;;;;;14.95;9.40;;;;;;;0.46;59.02;99436.63;1769788;79;21167;-39
2021/03/07 07:23:47;;;;;;;14.55;9.00;;;;;;;0.51;59.29;99441.89;1748018;81;21060;-39
2021/03/07 07:26:16;;;;;;;13.65;8.65;;;;;;;0.54;59.04;99427.95;1769987;79;21574;-39
2021/03/07 07:28:44;;;;;;;16.02;8.65;;;;;;;0.61;58.94;99435.86;1783172;79;21602;-39
2021/03/07 07:31:24;;;;;;;18.23;8.98;;;;;;;0.68;58.95;99424.79;1775186;79;21153;-39
2021/03/07 07:33:56;;;;;;;17.45;8.48;;;;;;;0.75;58.50;99429.22;1762824;80;21383;-39
2021/03/07 07:36:32;;;;;;;14.15;8.68;;;;;;;0.74;57.95;99414.28;1765931;81;21207;-39
2021/03/07 07:39:01;;;;;;;14.18;8.05;;;;;;;0.74;57.80;99411.08;1759620;81;21582;-39
2021/03/07 07:41:38;;;;;;;15.45;9.10;;;;;;;0.72;57.93;99399.13;1752082;81;21132;-39
2021/03/07 07:44:10;;;;;;;15.98;9.13;;;;;;;0.69;57.78;99391.69;1767113;81;21154;-40
2021/03/07 07:47:02;;;;;;;14.43;9.55;;;;;;;0.67;58.37;99407.22;1750061;80;21411;-39
2021/03/07 07:49:40;;;;;;;15.15;8.88;;;;;;;0.69;58.32;99397.03;1759994;80;21188;-39
2021/03/07 07:52:32;;;;;;;13.45;8.58;;;;;;;0.69;58.89;99395.16;1750237;80;21981;-39
2021/03/07 07:55:07;;;;;;;15.80;8.55;;;;;;;0.73;57.79;99386.80;1749846;80;21158;-38
2021/03/07 07:57:47;;;;;;;12.40;8.55;;;;;;;0.78;57.84;99376.59;1823604;77;22349;-38
2021/03/07 08:00:20;;;;;;;12.68;8.00;;;;;;;0.78;58.29;99387.26;1798848;79;21055;-38
2021/03/07 08:02:51;;;;;;;15.70;8.83;;;;;;;0.78;58.19;99374.71;1801087;79;21205;-38
2021/03/07 08:05:28;;;;;;;14.18;8.28;;;;;;;0.77;58.23;99378.48;1799845;78;20999;-38
2021/03/07 08:08:04;;;;;;;14.53;8.88;;;;;;;0.78;58.17;99365.38;1785053;78;21031;-38
2021/03/07 08:10:44;;;;;;;14.40;8.28;;;;;;;0.82;58.48;99377.61;1759093;80;21332;-38
2021/03/07 08:13:35;;;;;;;14.70;7.95;;;;;;;0.86;58.09;99369.25;1755817;80;21735;-38
2021/03/07 08:16:04;;;;;;;11.05;6.97;;;;;;;0.89;57.86;99363.31;1749708;80;21634;-37
2021/03/07 08:18:50;;;;;;;15.15;7.95;;;;;;;0.91;58.00;99370.50;1723606;82;21351;-38
2021/03/07 08:21:20;;;;;;;13.35;7.53;;;;;;;0.90;57.81;99340.88;1774908;80;21613;-38
2021/03/07 08:24:04;;;;;;;13.00;7.78;;;;;;;0.89;58.22;99351.30;1759725;80;21060;-38
2021/03/07 08:26:50;;;;;;;12.53;7.75;;;;;;;0.95;58.33;99340.78;1733508;82;22113;-38
2021/03/07 08:29:42;;;;;;;13.15;7.58;;;;;;;0.98;57.94;99338.06;1711310;83;21395;-38
2021/03/07 08:32:39;;;;;;;11.83;7.75;;;;;;;0.96;58.12;99340.25;1734347;81;21031;-38
2021/03/07 08:35:16;;;;;;;14.98;8.20;;;;;;;0.96;58.29;99330.36;1741311;81;21609;-38
2021/03/07 08:38:13;;;;;;;14.55;8.48;;;;;;;0.98;58.52;99348.19;1735611;81;21211;-38
2021/03/07 08:40:46;;;;;;;12.93;8.18;;;;;;;1.00;58.02;99348.70;1723202;81;21122;-38
2021/03/07 08:43:29;;;;;;;13.85;7.85;;;;;;;0.97;58.35;99347.94;1728909;82;21452;-38
2021/03/07 08:46:05;;;;;;;13.98;8.03;;;;;;;1.01;58.57;99352.95;1745581;80;21174;-38
2021/03/07 08:48:33;;;;;;;14.40;7.65;;;;;;;1.08;58.45;99337.86;1757829;80;21122;-38
2021/03/07 08:51:03;;;;;;;13.60;7.72;;;;;;;1.09;58.51;99338.91;1745364;81;21149;-38
2021/03/07 08:53:33;;;;;;;13.38;8.38;;;;;;;1.13;58.17;99335.88;1730822;80;21175;-38
2021/03/07 08:56:01;;;;;;;;;;;;;;;1.16;58.17;99325.94;1760518;80;21384;-38
2021/03/07 08:58:29;;;;;;;12.85;7.87;;;;;;;1.20;58.65;99315.47;1750596;81;20268;-38
2021/03/07 09:00:58;;;;;;;16.05;7.60;;;;;;;1.15;58.60;99311.02;1798178;79;21131;-38
2021/03/07 09:03:28;;;;;;;12.82;7.72;;;;;;;1.23;59.27;99318.33;1727367;81;21173;-38
2021/03/07 09:05:57;;;;;;;14.83;7.90;;;;;;;1.29;58.67;99300.32;1745568;81;21185;-38
2021/03/07 09:08:27;;;;;;;11.35;7.67;;;;;;;1.30;58.15;99312.59;1721237;83;23455;-38
2021/03/07 09:10:59;;;;;;;13.70;7.12;;;;;;;1.25;58.47;99298.80;1738193;82;21194;-38
2021/03/07 09:13:28;;;;;;;10.23;7.03;;;;;;;1.22;58.26;99310.60;1733768;82;20986;-38
2021/03/07 09:16:02;;;;;;;11.55;7.83;;;;;;;1.24;58.52;99306.56;1739856;81;26675;-38
2021/03/07 09:18:34;;;;;;;13.55;6.95;;;;;;;1.23;58.86;99310.31;1724562;81;21159;-38
2021/03/07 09:21:08;;;;;;;11.83;7.78;;;;;;;1.24;58.83;99306.56;1719153;82;21330;-38
2021/03/07 09:23:41;;;;;;;11.88;8.03;;;;;;;1.23;59.00;99300.97;1702325;82;21636;-38
2021/03/07 09:26:18;;;;;;;11.70;7.70;;;;;;;1.26;58.84;99307.03;1730673;81;21106;-38
2021/03/07 09:28:49;;;;;;;12.63;8.03;;;;;;;1.31;58.78;99297.58;1796822;79;21166;-38
2021/03/07 09:31:24;;;;;;;11.53;7.53;;;;;;;1.33;58.61;99296.50;1743325;81;22071;-38
2021/03/07 09:33:56;;;;;;;13.05;7.35;;;;;;;1.31;58.71;99305.59;1740823;82;21209;-38
2021/03/07 09:36:26;;;;;;;11.55;7.55;;;;;;;1.24;58.74;99301.22;1738310;82;21243;-38
2021/03/07 09:39:00;;;;;;;10.43;6.85;;;;;;;1.27;58.87;99280.58;1738136;81;21159;-38
2021/03/07 09:41:38;;;;;;;12.28;7.33;;;;;;;1.27;58.73;99277.91;1745707;81;21680;-38
2021/03/07 09:44:22;;;;;;;12.78;7.03;;;;;;;1.23;58.87;99291.63;1734102;82;21174;-37
2021/03/07 09:46:52;;;;;;;10.35;7.00;;;;;;;1.26;58.75;99285.67;1732248;82;21211;-38
2021/03/07 09:49:24;;;;;;;12.58;7.55;;;;;;;1.26;58.77;99292.89;1789022;79;21597;-38
2021/03/07 09:51:52;;;;;;;12.88;7.75;;;;;;;1.27;59.12;99297.94;1784422;79;20991;-38
2021/03/07 09:54:21;;;;;;;12.13;7.65;;;;;;;1.30;59.27;99298.70;1787138;79;21373;-38
2021/03/07 09:56:52;;;;;;;12.98;7.30;;;;;;;1.37;59.17;99286.80;1787891;79;21120;-38
2021/03/07 09:59:34;;;;;;;10.58;6.97;;;;;;;1.37;58.85;99290.25;1792874;79;21214;-38
2021/03/07 10:02:05;;;;;;;11.20;6.97;;;;;;;1.44;59.15;99295.20;1716604;82;21174;-38
2021/03/07 10:04:45;;;;;;;12.05;7.55;;;;;;;1.45;59.41;99288.77;1786247;79;20973;-40
2021/03/07 10:07:20;;;;;;;10.70;5.83;;;;;;;1.47;59.13;99284.70;1787731;79;21153;-40
2021/03/07 10:10:11;;;;;;;11.80;7.87;;;;;;;1.42;59.14;99276.79;1790380;79;21173;-40
2021/03/07 10:12:51;;;;;;;14.38;7.30;;;;;;;1.49;59.52;99260.36;1774148;79;21617;-40
2021/03/07 10:15:35;;;;;;;10.63;6.40;;;;;;;1.54;59.22;99270.39;1787091;79;21139;-40
2021/03/07 10:18:16;;;;;;;13.58;6.53;;;;;;;1.59;59.06;99271.61;1729464;82;21155;-40
2021/03/07 10:20:48;;;;;;;10.75;6.70;;;;;;;1.61;58.84;99269.95;1769005;79;21605;-40
2021/03/07 10:23:17;;;;;;;9.83;6.00;;;;;;;1.64;58.52;99257.34;1718727;83;21163;-40
2021/03/07 10:25:48;;;;;;;9.28;5.87;;;;;;;1.70;58.26;99253.44;1785262;79;21387;-40
2021/03/07 10:28:29;;;;;;;12.10;6.40;;;;;;;1.73;58.12;99238.95;1792232;79;21175;-40
2021/03/07 10:31:12;;;;;;;11.03;6.03;;;;;;;1.79;57.09;99245.50;1785601;79;21135;-40
2021/03/07 10:33:41;;;;;;;8.75;5.67;;;;;;;1.79;57.45;99250.85;1791440;79;21146;-40
2021/03/07 10:36:13;;;;;;;11.28;6.12;;;;;;;1.83;55.83;99228.55;1717440;82;21190;-40
2021/03/07 10:38:44;;;;;;;9.60;5.53;;;;;;;1.90;56.93;99226.23;1785974;79;21193;-39
2021/03/07 10:41:30;;;;;;;;;;;;;;;1.89;56.40;99223.87;1718599;83;21434;-40
2021/03/07 10:44:02;;;;;;;8.93;5.20;;;;;;;1.92;56.53;99240.09;1725717;82;20284;-39
2021/03/07 10:46:44;;;;;;;10.05;5.80;;;;;;;1.87;56.84;99233.53;1775537;79;21160;-40
2021/03/07 10:49:14;;;;;;;9.35;5.30;;;;;;;1.89;57.69;99244.69;1778725;79;21176;-40
2021/03/07 10:51:43;;;;;;;8.73;4.90;;;;;;;1.89;56.37;99242.02;1765878;79;21206;-40
2021/03/07 10:54:11;;;;;;;12.13;5.55;;;;;;;1.89;56.24;99228.65;1768206;79;21156;-40
2021/03/07 10:56:40;;;;;;;10.10;6.35;;;;;;;1.91;56.51;99225.14;1769127;79;21789;-40
2021/03/07 10:59:10;;;;;;;10.98;5.58;;;;;;;1.88;56.15;99211.05;1802351;79;21557;-40
2021/03/07 11:01:39;;;;;;;8.28;5.72;;;;;;;1.92;55.82;99216.03;1787971;79;21171;-40
2021/03/07 11:04:09;;;;;;;7.47;5.22;;;;;;;1.94;55.68;99211.15;1791891;78;21192;-39
2021/03/07 11:06:37;;;;;;;8.38;5.60;;;;;;;1.94;55.81;99204.46;1730792;82;21166;-40
2021/03/07 11:09:06;;;;;;;7.40;5.25;;;;;;;1.95;56.11;99214.61;1728885;82;21589;-40
2021/03/07 11:11:37;;;;;;;7.47;5.07;;;;;;;1.90;55.37;99199.49;1743449;81;21148;-39
2021/03/07 11:14:05;;;;;;;12.40;5.55;;;;;;;1.94;55.80;99199.66;1725162;80;21349;-40
2021/03/07 11:16:34;;;;;;;9.63;5.25;;;;;;;1.94;55.78;99193.77;1729205;81;21395;-40
2021/03/07 11:19:04;;;;;;;;;;;;;;;1.91;55.75;99183.70;1784320;79;21618;-40
2021/03/07 11:21:32;;;;;;;8.98;5.30;;;;;;;1.92;55.99;99177.27;1779352;79;20250;-40
2021/03/07 11:24:06;;;;;;;7.17;4.85;;;;;;;1.83;56.04;99171.63;1780585;79;21131;-40
2021/03/07 11:26:34;;;;;;;7.33;5.28;;;;;;;1.87;56.49;99172.05;1787142;79;21174;-40
2021/03/07 11:29:05;;;;;;;8.40;5.47;;;;;;;1.86;56.13;99164.33;1746530;80;21192;-40
2021/03/07 11:31:34;;;;;;;10.47;4.43;;;;;;;1.90;56.26;99154.05;1737029;81;21198;-40
2021/03/07 11:34:03;;;;;;;6.42;4.80;;;;;;;1.97;55.96;99142.93;1744038;80;21147;-40
2021/03/07 11:36:31;;;;;;;8.33;5.50;;;;;;;2.04;56.11;99130.68;1710706;82;21147;-40
2021/03/07 11:38:59;;;;;;;11.00;5.92;;;;;;;2.14;55.99;99159.03;1727152;82;21226;-40
2021/03/07 11:41:27;;;;;;;8.38;5.60;;;;;;;2.18;56.15;99135.92;1732510;82;22034;-40
2021/03/07 11:43:56;;;;;;;9.03;4.97;;;;;;;2.26;56.20;99133.05;1768251;81;21186;-39
2021/03/07 11:46:24;;;;;;;9.20;5.87;;;;;;;1.92;55.27;99115.78;1737920;82;21148;-40
2021/03/07 11:48:52;;;;;;;10.55;6.30;;;;;;;2.29;55.11;99108.34;1736889;82;21921;-40
2021/03/07 11:51:21;;;;;;;9.38;5.75;;;;;;;2.32;55.47;99131.82;1753057;81;21131;-40
2021/03/07 11:53:50;;;;;;;10.68;5.90;;;;;;;2.29;55.61;99133.21;1737989;81;21405;-40
2021/03/07 11:56:18;;;;;;;10.98;5.90;;;;;;;2.27;55.54;99126.61;1746662;80;21219;-40